Time;durP1;ratioP1;P1;durP2;ratioP2;P2;SDS_P1;SDS_P2;PMS_P1;PMS_P2;Temp;Humidity;BMP_temperature;BMP_pressure;BME280_temperature;BME280_humidity;BME280_pressure;Samples;Min_cycle;Max_cycle;Signal;HPM_P1;HPM_P2
2024/04/20 00:01:36;;;;;;;0.00;0.00;;;12.10;77.30;;;;;;5491973;26;19994;-76
2024/04/20 00:04:02;;;;;;;0.10;0.10;;;12.10;77.60;;;;;;5491928;26;19990;-76
2024/04/20 00:06:28;;;;;;;0.10;0.10;;;12.00;77.70;;;;;;5490718;26;20012;-76
2024/04/20 00:08:54;;;;;;;0.10;0.10;;;12.10;77.70;;;;;;5492685;26;20031;-76
2024/04/20 00:11:20;;;;;;;0.10;0.10;;;12.00;77.40;;;;;;5493865;26;20002;-76
2024/04/20 00:13:49;;;;;;;0.10;0.10;;;11.90;77.60;;;;;;5492234;26;20343;-76
2024/04/20 00:16:15;;;;;;;0.00;0.00;;;11.90;77.60;;;;;;5490944;26;20714;-76
2024/04/20 00:18:41;;;;;;;0.10;0.10;;;11.80;77.60;;;;;;5497839;26;20001;-76
2024/04/20 00:21:08;;;;;;;0.10;0.10;;;11.80;77.70;;;;;;5506157;26;20013;-76
2024/04/20 00:23:34;;;;;;;0.10;0.10;;;11.70;77.80;;;;;;5493589;26;20716;-76
2024/04/20 00:26:04;;;;;;;0.10;0.10;;;11.70;77.80;;;;;;5493855;26;20002;-76
2024/04/20 00:28:30;;;;;;;0.10;0.10;;;11.70;77.70;;;;;;5492788;26;19998;-76
2024/04/20 00:30:59;;;;;;;0.00;0.00;;;11.70;77.90;;;;;;5496077;26;20332;-76
2024/04/20 00:33:25;;;;;;;0.00;0.00;;;11.70;78.30;;;;;;5495692;26;19998;-76
2024/04/20 00:35:51;;;;;;;0.00;0.00;;;11.70;78.40;;;;;;5495234;26;20001;-76
2024/04/20 00:38:16;;;;;;;0.00;0.00;;;11.80;78.10;;;;;;5493378;26;19998;-76
2024/04/20 00:40:42;;;;;;;0.10;0.10;;;11.80;78.40;;;;;;5494799;26;20009;-76
2024/04/20 00:43:17;;;;;;;0.00;0.00;;;11.80;78.60;;;;;;5494429;26;20449;-76
2024/04/20 00:45:45;;;;;;;0.00;0.00;;;11.80;78.50;;;;;;5496025;26;20002;-76
2024/04/20 00:48:11;;;;;;;0.10;0.10;;;11.80;78.30;;;;;;5495930;26;20009;-76
2024/04/20 00:50:39;;;;;;;0.10;0.10;;;11.80;78.40;;;;;;5512746;26;20324;-76
2024/04/20 00:53:05;;;;;;;0.10;0.10;;;11.70;78.30;;;;;;5495344;26;20034;-76
2024/04/20 00:55:31;;;;;;;0.10;0.10;;;11.70;78.10;;;;;;5494257;26;20069;-76
2024/04/20 00:58:00;;;;;;;0.05;0.05;;;11.60;78.50;;;;;;5494815;26;20070;-76
2024/04/20 01:00:27;;;;;;;0.10;0.10;;;11.50;78.40;;;;;;5494178;26;20055;-76
2024/04/20 01:02:53;;;;;;;0.10;0.10;;;11.50;78.20;;;;;;5495396;26;20039;-76
2024/04/20 01:05:20;;;;;;;0.10;0.10;;;11.50;78.20;;;;;;5495429;26;20002;-76
2024/04/20 01:07:45;;;;;;;0.10;0.10;;;11.50;78.40;;;;;;5494132;26;19993;-76
2024/04/20 01:10:11;;;;;;;0.10;0.10;;;11.40;78.50;;;;;;5495046;26;19994;-76
2024/04/20 01:12:38;;;;;;;0.00;0.00;;;11.40;78.80;;;;;;5524130;26;20008;-76
2024/04/20 01:15:05;;;;;;;0.10;0.10;;;11.40;78.60;;;;;;5518752;25;20043;-76
2024/04/20 01:17:30;;;;;;;0.10;0.10;;;11.30;79.00;;;;;;5494238;26;20010;-76
2024/04/20 01:19:56;;;;;;;0.10;0.10;;;11.30;79.00;;;;;;5520090;26;20444;-76
2024/04/20 01:22:22;;;;;;;0.10;0.10;;;11.30;79.00;;;;;;5531793;25;20070;-76
2024/04/20 01:24:48;;;;;;;0.10;0.10;;;11.30;78.90;;;;;;5509820;25;19994;-76
2024/04/20 01:27:14;;;;;;;0.08;0.08;;;11.20;79.10;;;;;;5494537;26;20062;-76
2024/04/20 01:29:39;;;;;;;0.10;0.10;;;11.30;78.80;;;;;;5493042;26;20047;-76
2024/04/20 01:32:05;;;;;;;0.10;0.10;;;11.40;78.90;;;;;;5494243;26;20331;-76
2024/04/20 01:34:31;;;;;;;0.10;0.10;;;11.50;78.60;;;;;;5492539;26;20309;-76
2024/04/20 01:36:57;;;;;;;0.10;0.10;;;11.50;78.50;;;;;;5494087;26;20009;-76
2024/04/20 01:39:22;;;;;;;0.10;0.10;;;11.40;78.60;;;;;;5495203;26;20449;-76
2024/04/20 01:41:48;;;;;;;0.10;0.10;;;11.40;78.70;;;;;;5494487;26;20002;-76
2024/04/20 01:44:14;;;;;;;0.10;0.10;;;11.40;78.90;;;;;;5494031;26;20063;-76
2024/04/20 01:46:39;;;;;;;0.10;0.10;;;11.50;78.70;;;;;;5495122;26;20008;-76
2024/04/20 01:49:05;;;;;;;0.10;0.10;;;11.60;78.60;;;;;;5506467;26;19993;-76
2024/04/20 01:51:31;;;;;;;0.10;0.10;;;11.50;78.90;;;;;;5501406;26;20035;-76
2024/04/20 01:53:56;;;;;;;0.10;0.10;;;11.50;78.80;;;;;;5495028;26;19998;-76
2024/04/20 01:56:22;;;;;;;0.00;0.00;;;11.60;78.70;;;;;;5492621;26;20074;-76
2024/04/20 01:58:47;;;;;;;0.00;0.00;;;11.60;78.50;;;;;;5519857;26;20009;-76
2024/04/20 02:01:13;;;;;;;0.10;0.10;;;11.50;78.90;;;;;;5494906;26;20002;-76
2024/04/20 02:03:40;;;;;;;0.10;0.10;;;11.50;78.90;;;;;;5494619;26;19998;-76
2024/04/20 02:06:06;;;;;;;0.10;0.10;;;11.50;78.80;;;;;;5493155;26;20026;-76
2024/04/20 02:08:31;;;;;;;0.00;0.00;;;11.50;78.80;;;;;;5491873;26;20009;-76
2024/04/20 02:10:57;;;;;;;0.10;0.10;;;11.50;78.50;;;;;;5485783;26;20003;-76
2024/04/20 02:13:23;;;;;;;0.10;0.10;;;11.50;78.60;;;;;;5455835;26;20064;-76
2024/04/20 02:15:49;;;;;;;0.10;0.10;;;11.50;78.70;;;;;;5464232;26;19994;-76
2024/04/20 02:18:14;;;;;;;0.10;0.10;;;11.50;78.70;;;;;;5493648;26;19994;-76
2024/04/20 02:20:40;;;;;;;0.00;0.00;;;11.40;78.50;;;;;;5529204;26;20004;-74
2024/04/20 02:23:06;;;;;;;0.08;0.08;;;11.30;78.50;;;;;;5504507;26;20013;-74
2024/04/20 02:25:32;;;;;;;0.10;0.10;;;11.30;78.50;;;;;;5494508;26;20121;-74
2024/04/20 02:27:57;;;;;;;0.10;0.10;;;11.20;78.60;;;;;;5492464;26;20021;-74
2024/04/20 02:30:23;;;;;;;0.10;0.10;;;11.20;79.00;;;;;;5490305;26;19998;-74
2024/04/20 02:32:49;;;;;;;0.10;0.10;;;11.10;78.90;;;;;;5491184;26;20051;-77
2024/04/20 02:35:15;;;;;;;0.10;0.10;;;11.00;79.40;;;;;;5475880;26;19995;-77
2024/04/20 02:37:40;;;;;;;0.10;0.10;;;11.10;79.10;;;;;;5462406;26;20047;-74
2024/04/20 02:40:07;;;;;;;0.10;0.10;;;11.00;79.50;;;;;;5492641;26;19998;-76
2024/04/20 02:42:33;;;;;;;0.05;0.05;;;11.00;79.30;;;;;;5492162;26;20001;-76
2024/04/20 02:45:02;;;;;;;0.10;0.10;;;10.90;79.30;;;;;;5492088;26;20674;-74
2024/04/20 02:47:27;;;;;;;0.03;0.03;;;11.00;79.40;;;;;;5492126;26;19994;-74
2024/04/20 02:49:53;;;;;;;0.10;0.10;;;10.90;79.40;;;;;;5518404;26;20007;-76
2024/04/20 02:52:18;;;;;;;0.10;0.10;;;10.90;79.50;;;;;;5502891;26;20072;-76
2024/04/20 02:54:44;;;;;;;0.05;0.05;;;10.80;79.60;;;;;;5492191;26;20021;-76
2024/04/20 02:57:10;;;;;;;0.10;0.10;;;10.80;79.60;;;;;;5492525;26;20009;-75
2024/04/20 02:59:36;;;;;;;0.10;0.10;;;10.80;79.70;;;;;;5493864;26;20337;-76
2024/04/20 03:02:02;;;;;;;0.10;0.10;;;10.80;79.70;;;;;;5492270;26;20009;-77
2024/04/20 03:04:27;;;;;;;0.10;0.10;;;10.80;79.50;;;;;;5493689;26;20006;-76
2024/04/20 03:06:53;;;;;;;0.00;0.00;;;10.70;79.40;;;;;;5492799;26;19998;-76
2024/04/20 03:09:19;;;;;;;0.10;0.10;;;10.60;79.30;;;;;;5491948;26;19994;-74
2024/04/20 03:11:45;;;;;;;0.10;0.10;;;10.70;79.30;;;;;;5511290;26;20012;-76
2024/04/20 03:14:11;;;;;;;0.10;0.10;;;10.60;79.60;;;;;;5530771;25;20016;-77
2024/04/20 03:16:36;;;;;;;0.10;0.10;;;10.50;79.80;;;;;;5530110;26;20002;-77
2024/04/20 03:19:02;;;;;;;0.10;0.10;;;10.50;79.70;;;;;;5519357;26;20008;-76
2024/04/20 03:21:28;;;;;;;0.10;0.10;;;10.50;79.90;;;;;;5519273;26;20010;-77
2024/04/20 03:23:54;;;;;;;0.10;0.10;;;10.50;79.60;;;;;;5491715;26;20031;-77
2024/04/20 03:26:19;;;;;;;0.10;0.10;;;10.50;79.80;;;;;;5490902;26;20013;-77
2024/04/20 03:28:45;;;;;;;0.10;0.10;;;10.50;80.00;;;;;;5493407;26;20032;-76
2024/04/20 03:31:11;;;;;;;0.10;0.10;;;10.50;80.10;;;;;;5492137;26;20043;-76
2024/04/20 03:33:36;;;;;;;0.10;0.10;;;10.50;80.20;;;;;;5522031;26;20001;-77
2024/04/20 03:36:02;;;;;;;0.10;0.10;;;10.50;80.50;;;;;;5491146;26;19998;-77
2024/04/20 03:38:28;;;;;;;0.10;0.10;;;10.50;80.30;;;;;;5492730;26;20009;-77
2024/04/20 03:40:53;;;;;;;0.00;0.00;;;10.50;80.50;;;;;;5491920;26;20008;-77
2024/04/20 03:43:20;;;;;;;0.10;0.10;;;10.50;80.40;;;;;;5492681;26;20002;-77
2024/04/20 03:45:53;;;;;;;0.10;0.10;;;10.50;80.50;;;;;;5492458;26;20002;-76
2024/04/20 03:48:18;;;;;;;0.10;0.10;;;10.50;80.40;;;;;;5493583;26;20013;-76
2024/04/20 03:51:00;;;;;;;0.10;0.10;;;10.50;80.40;;;;;;5494773;25;20002;-76
2024/04/20 03:53:26;;;;;;;0.10;0.10;;;10.50;80.10;;;;;;5491647;26;20498;-76
2024/04/20 03:55:52;;;;;;;0.10;0.10;;;10.50;80.20;;;;;;5492019;26;19998;-76
2024/04/20 03:58:18;;;;;;;0.10;0.10;;;10.50;80.20;;;;;;5491720;26;19994;-76
2024/04/20 04:00:46;;;;;;;0.10;0.10;;;10.40;80.20;;;;;;5492917;26;20009;-76
2024/04/20 04:03:26;;;;;;;0.10;0.10;;;10.40;80.30;;;;;;5490539;26;20083;-76
2024/04/20 04:05:52;;;;;;;0.08;0.08;;;10.40;80.20;;;;;;5491542;26;20036;-76
2024/04/20 04:08:18;;;;;;;0.10;0.10;;;10.30;80.20;;;;;;5492685;26;20445;-76
2024/04/20 04:10:47;;;;;;;0.10;0.10;;;10.40;80.10;;;;;;5495589;26;20013;-77
2024/04/20 04:13:14;;;;;;;0.10;0.10;;;10.30;79.60;;;;;;5501412;26;19990;-76
2024/04/20 04:15:41;;;;;;;0.00;0.00;;;10.30;79.80;;;;;;5491371;26;19994;-76
2024/04/20 04:18:10;;;;;;;0.10;0.10;;;10.20;79.90;;;;;;5491215;26;20423;-76
2024/04/20 04:20:36;;;;;;;0.10;0.10;;;10.20;80.00;;;;;;5527511;26;20013;-76
2024/04/20 04:23:03;;;;;;;0.10;0.10;;;10.20;80.00;;;;;;5527288;26;20012;-77
2024/04/20 04:25:31;;;;;;;0.10;0.10;;;10.20;80.00;;;;;;5523580;25;20005;-76
2024/04/20 04:27:58;;;;;;;0.10;0.10;;;10.20;79.90;;;;;;5491805;26;19998;-77
2024/04/20 04:30:24;;;;;;;0.10;0.10;;;10.20;79.90;;;;;;5490639;26;20010;-76
2024/04/20 04:32:50;;;;;;;0.10;0.10;;;10.20;79.80;;;;;;5474717;25;19995;-77
2024/04/20 04:35:16;;;;;;;0.00;0.00;;;10.20;79.50;;;;;;5482092;26;20066;-77
2024/04/20 04:37:42;;;;;;;0.10;0.10;;;10.10;79.30;;;;;;5456483;26;20010;-77
2024/04/20 04:40:08;;;;;;;0.10;0.10;;;10.00;79.60;;;;;;5460987;26;20006;-77
2024/04/20 04:42:33;;;;;;;0.10;0.10;;;9.90;79.30;;;;;;5489641;26;20409;-77
2024/04/20 04:44:59;;;;;;;0.10;0.10;;;9.90;79.60;;;;;;5490781;26;20013;-77
2024/04/20 04:47:25;;;;;;;0.10;0.10;;;9.80;79.90;;;;;;5489880;26;20002;-76
2024/04/20 04:49:51;;;;;;;0.10;0.10;;;9.80;79.40;;;;;;5492511;26;20017;-76
2024/04/20 04:52:17;;;;;;;0.10;0.10;;;9.80;79.50;;;;;;5488795;26;20016;-76
2024/04/20 04:54:43;;;;;;;0.10;0.10;;;9.70;79.70;;;;;;5489115;26;19999;-76
2024/04/20 04:57:09;;;;;;;0.10;0.10;;;9.70;79.70;;;;;;5491720;26;20405;-76
2024/04/20 04:59:35;;;;;;;0.10;0.10;;;9.80;79.70;;;;;;5489739;26;20002;-76
2024/04/20 05:02:01;;;;;;;0.00;0.00;;;9.80;79.60;;;;;;5484158;26;19997;-76
2024/04/20 05:04:30;;;;;;;0.10;0.10;;;9.70;79.60;;;;;;5489612;26;20009;-76
2024/04/20 05:06:55;;;;;;;0.10;0.10;;;9.70;79.60;;;;;;5491189;26;20035;-76
2024/04/20 05:09:21;;;;;;;0.10;0.10;;;9.70;79.20;;;;;;5492520;26;19994;-77
2024/04/20 05:11:48;;;;;;;0.10;0.10;;;9.70;79.20;;;;;;5514329;26;20008;-76
2024/04/20 05:14:14;;;;;;;0.00;0.00;;;9.70;79.30;;;;;;5531990;25;19997;-76
2024/04/20 05:16:41;;;;;;;0.10;0.10;;;9.70;79.10;;;;;;5509050;26;19998;-76
2024/04/20 05:19:07;;;;;;;0.10;0.10;;;9.70;78.90;;;;;;5505972;26;20468;-77
2024/04/20 05:21:32;;;;;;;0.10;0.10;;;9.70;79.00;;;;;;5503560;25;19998;-76
2024/04/20 05:24:00;;;;;;;0.10;0.10;;;9.70;78.90;;;;;;5524047;26;20342;-76
2024/04/20 05:26:28;;;;;;;0.10;0.10;;;9.70;78.80;;;;;;5495399;26;19994;-76
2024/04/20 05:28:53;;;;;;;0.10;0.10;;;9.70;78.50;;;;;;5495198;26;19998;-76
2024/04/20 05:31:19;;;;;;;0.10;0.10;;;9.70;78.40;;;;;;5485213;26;20009;-76
2024/04/20 05:33:44;;;;;;;0.10;0.10;;;9.80;78.30;;;;;;5492125;26;20401;-76
2024/04/20 05:36:10;;;;;;;0.05;0.05;;;9.80;78.30;;;;;;5495493;26;20008;-76
2024/04/20 05:38:36;;;;;;;0.10;0.10;;;9.80;78.20;;;;;;5494842;26;20002;-76
2024/04/20 05:41:03;;;;;;;0.10;0.10;;;9.70;77.80;;;;;;5486809;26;20017;-76
2024/04/20 05:43:29;;;;;;;0.10;0.10;;;9.70;77.90;;;;;;5494688;26;20467;-76
2024/04/20 05:45:55;;;;;;;0.10;0.10;;;9.70;78.00;;;;;;5457159;26;19999;-76
2024/04/20 05:48:20;;;;;;;0.10;0.10;;;9.70;78.00;;;;;;5460489;26;20071;-77
2024/04/20 05:50:46;;;;;;;0.10;0.10;;;9.70;78.00;;;;;;5509796;26;20440;-79
2024/04/20 05:53:12;;;;;;;0.10;0.10;;;9.60;78.00;;;;;;5481386;26;19999;-80
2024/04/20 05:55:38;;;;;;;0.10;0.10;;;9.70;78.30;;;;;;5458132;26;20005;-80
2024/04/20 05:58:04;;;;;;;0.10;0.10;;;9.70;78.00;;;;;;5458277;26;20007;-77
2024/04/20 06:00:30;;;;;;;0.10;0.10;;;9.80;77.90;;;;;;5469013;26;20453;-77
2024/04/20 06:02:55;;;;;;;0.10;0.10;;;9.80;77.70;;;;;;5457775;26;20129;-79
2024/04/20 06:05:21;;;;;;;0.10;0.10;;;9.90;77.40;;;;;;5462638;26;19998;-79
2024/04/20 06:07:47;;;;;;;0.10;0.10;;;9.90;77.40;;;;;;5494296;26;20006;-80
2024/04/20 06:10:13;;;;;;;0.15;0.15;;;9.90;77.50;;;;;;5492176;26;20009;-79
2024/04/20 06:12:39;;;;;;;0.10;0.10;;;9.90;77.10;;;;;;5491213;26;20464;-82
2024/04/20 06:15:05;;;;;;;0.10;0.10;;;9.90;77.20;;;;;;5485781;26;20018;-83
2024/04/20 06:17:31;;;;;;;0.10;0.10;;;9.90;77.00;;;;;;5455806;26;20003;-80
2024/04/20 06:19:56;;;;;;;0.10;0.10;;;10.00;77.00;;;;;;5490817;26;19998;-78
2024/04/20 06:22:22;;;;;;;0.10;0.10;;;10.10;76.90;;;;;;5473190;26;20040;-84
2024/04/20 06:24:53;;;;;;;0.10;0.10;;;10.10;76.70;;;;;;5475226;26;20337;-78
2024/04/20 06:27:22;;;;;;;0.10;0.10;;;10.10;76.60;;;;;;5469956;26;20010;-78
2024/04/20 06:29:48;;;;;;;0.10;0.10;;;10.00;76.40;;;;;;5485147;26;20416;-78
2024/04/20 06:32:14;;;;;;;0.10;0.10;;;10.10;76.80;;;;;;5471785;26;20036;-78
2024/04/20 06:34:40;;;;;;;0.10;0.10;;;10.00;76.30;;;;;;5473037;26;19999;-78
2024/04/20 06:37:06;;;;;;;0.10;0.10;;;10.00;76.30;;;;;;5456407;26;20010;-78
2024/04/20 06:39:32;;;;;;;0.00;0.00;;;10.00;75.40;;;;;;5485022;26;20013;-78
2024/04/20 06:41:59;;;;;;;0.10;0.10;;;10.00;74.60;;;;;;5492321;26;20008;-78
2024/04/20 06:44:25;;;;;;;0.10;0.10;;;10.10;74.80;;;;;;5468174;26;20006;-79
2024/04/20 06:46:58;;;;;;;0.10;0.10;;;10.20;74.10;;;;;;5491432;26;20032;-84
2024/04/20 06:49:24;;;;;;;0.20;0.20;;;10.20;74.10;;;;;;5493482;26;20339;-85
2024/04/20 06:51:49;;;;;;;0.10;0.10;;;10.30;73.50;;;;;;5461282;26;19995;-84
2024/04/20 06:54:15;;;;;;;0.10;0.10;;;10.30;72.40;;;;;;5491286;26;20034;-85
2024/04/20 06:56:40;;;;;;;0.10;0.10;;;10.40;72.30;;;;;;5493617;26;20509;-85
2024/04/20 06:59:06;;;;;;;0.10;0.10;;;10.50;72.00;;;;;;5491973;26;20051;-84
2024/04/20 07:01:32;;;;;;;0.10;0.10;;;10.60;71.70;;;;;;5491993;26;20009;-86
2024/04/20 07:03:57;;;;;;;0.10;0.10;;;10.90;71.00;;;;;;5491184;26;20068;-83
2024/04/20 07:06:23;;;;;;;0.10;0.10;;;11.10;69.80;;;;;;5480743;26;20002;-84
2024/04/20 07:08:49;;;;;;;0.10;0.10;;;11.30;67.60;;;;;;5464928;26;20407;-85
2024/04/20 07:11:14;;;;;;;0.10;0.10;;;11.50;68.40;;;;;;5482035;26;19993;-85
2024/04/20 07:13:41;;;;;;;0.20;0.20;;;11.70;67.80;;;;;;5528844;26;20034;-83
2024/04/20 07:16:07;;;;;;;0.10;0.10;;;11.80;67.40;;;;;;5496361;25;20026;-81
2024/04/20 07:18:33;;;;;;;0.10;0.10;;;12.10;67.20;;;;;;5486472;26;20070;-85
2024/04/20 07:21:06;;;;;;;0.10;0.10;;;12.20;65.80;;;;;;5516154;25;19998;-86
2024/04/20 07:23:33;;;;;;;0.10;0.10;;;12.20;65.80;;;;;;5482198;26;19998;-79
2024/04/20 07:26:03;;;;;;;0.20;0.20;;;12.30;65.00;;;;;;5489216;26;20066;-85
2024/04/20 07:28:29;;;;;;;0.20;0.20;;;12.50;64.50;;;;;;5485358;26;20045;-83
2024/04/20 07:30:56;;;;;;;0.10;0.10;;;12.80;62.00;;;;;;5474473;26;20363;-82
2024/04/20 07:33:22;;;;;;;0.10;0.10;;;13.00;61.40;;;;;;5470760;26;19998;-88
2024/04/20 07:35:48;;;;;;;0.10;0.10;;;13.00;61.80;;;;;;5483167;26;19999;-87
2024/04/20 07:38:14;;;;;;;0.10;0.10;;;13.00;61.60;;;;;;5491537;26;20050;-85
2024/04/20 07:40:40;;;;;;;0.10;0.10;;;12.80;60.60;;;;;;5486510;26;20734;-88
2024/04/20 07:43:06;;;;;;;0.20;0.20;;;13.10;61.30;;;;;;5468482;26;19998;-81
2024/04/20 07:45:32;;;;;;;0.20;0.20;;;14.00;59.00;;;;;;5473841;26;20006;-82
2024/04/20 07:47:57;;;;;;;0.30;0.30;;;14.50;56.30;;;;;;5456190;26;20044;-79
2024/04/20 07:50:23;;;;;;;0.40;0.40;;;15.40;55.10;;;;;;5505517;26;20013;-80
2024/04/20 07:52:49;;;;;;;0.70;0.70;;;17.00;51.80;;;;;;5458269;26;20002;-83
2024/04/20 07:55:18;;;;;;;0.50;0.50;;;19.00;46.90;;;;;;5485038;26;20042;-82
2024/04/20 07:57:45;;;;;;;0.60;0.60;;;21.50;42.90;;;;;;5491256;26;20002;-82
2024/04/20 08:00:16;;;;;;;0.50;0.50;;;23.00;36.00;;;;;;5481987;26;20001;-84
2024/04/20 08:02:44;;;;;;;0.50;0.50;;;23.90;36.00;;;;;;5484345;26;19998;-85
2024/04/20 08:05:10;;;;;;;0.60;0.60;;;25.20;34.10;;;;;;5470422;26;20013;-81
2024/04/20 08:07:36;;;;;;;0.60;0.60;;;26.10;32.30;;;;;;5485264;26;19994;-86
2024/04/20 08:10:02;;;;;;;0.60;0.60;;;26.90;31.10;;;;;;5490422;26;19998;-86
2024/04/20 08:12:28;;;;;;;0.60;0.60;;;27.20;29.10;;;;;;5488771;26;20008;-88
2024/04/20 08:14:53;;;;;;;0.80;0.80;;;27.80;28.90;;;;;;5489727;26;19994;-85
2024/04/20 08:17:19;;;;;;;0.65;0.65;;;28.30;28.00;;;;;;5476382;26;19999;-84
2024/04/20 08:19:46;;;;;;;0.70;0.70;;;28.70;27.20;;;;;;5482040;26;20002;-84
2024/04/20 08:22:11;;;;;;;0.50;0.50;;;28.20;26.10;;;;;;5469476;26;19995;-85
2024/04/20 08:24:37;;;;;;;0.80;0.80;;;28.60;27.10;;;;;;5477494;26;20351;-85
2024/04/20 08:27:03;;;;;;;0.70;0.70;;;29.20;26.80;;;;;;5487886;26;19998;-85
2024/04/20 08:29:28;;;;;;;0.80;0.80;;;29.40;25.70;;;;;;5482697;26;20159;-85
2024/04/20 08:31:54;;;;;;;0.80;0.80;;;29.60;25.50;;;;;;5486281;26;20067;-84
2024/04/20 08:34:20;;;;;;;0.90;0.90;;;29.80;25.70;;;;;;5476350;26;19994;-84
2024/04/20 08:36:45;;;;;;;0.90;0.90;;;30.20;25.50;;;;;;5476342;26;20227;-83
2024/04/20 08:39:11;;;;;;;0.80;0.80;;;30.30;24.80;;;;;;5518854;26;20008;-82
2024/04/20 08:42:02;;;;;;;0.60;0.60;;;30.30;24.90;;;;;;5493355;26;20013;-84
2024/04/20 08:44:28;;;;;;;0.80;0.80;;;29.80;24.80;;;;;;5492904;26;20006;-85
2024/04/20 08:46:54;;;;;;;0.80;0.80;;;29.30;24.80;;;;;;5494394;26;19998;-84
2024/04/20 08:49:25;;;;;;;0.80;0.80;;;28.90;24.20;;;;;;5493060;26;20001;-83
2024/04/20 08:51:54;;;;;;;0.90;0.90;;;28.80;24.70;;;;;;5495117;26;20013;-84
2024/04/20 08:54:22;;;;;;;0.40;0.40;;;29.00;25.40;;;;;;5481309;26;20420;-84
2024/04/20 08:56:48;;;;;;;0.80;0.80;;;28.30;26.40;;;;;;5476801;26;20598;-85
2024/04/20 08:59:34;;;;;;;0.13;0.13;;;28.50;25.80;;;;;;5487559;26;20002;-87
2024/04/20 09:02:41;;;;;;;0.00;0.00;;;26.10;26.90;;;;;;5486207;26;20091;-83
2024/04/20 09:05:03;;;;;;;0.00;0.00;;;25.80;28.60;;;;;;5491856;26;20464;-85
2024/04/20 09:07:29;;;;;;;0.80;0.80;;;24.10;31.00;;;;;;5485955;26;19998;-81
2024/04/20 09:09:55;;;;;;;0.70;0.70;;;25.10;30.60;;;;;;5475551;26;20071;-76
2024/04/20 09:12:20;;;;;;;0.32;0.32;;;26.10;30.20;;;;;;5488662;26;20005;-81
2024/04/20 09:14:46;;;;;;;0.70;0.70;;;25.50;29.50;;;;;;5494548;26;20009;-81
2024/04/20 09:17:14;;;;;;;0.60;0.60;;;26.10;29.70;;;;;;5493779;26;20005;-81
2024/04/20 09:19:40;;;;;;;0.20;0.20;;;26.60;28.80;;;;;;5493792;26;20002;-78
2024/04/20 09:22:10;;;;;;;0.70;0.70;;;25.80;29.50;;;;;;5477762;26;20006;-83
2024/04/20 09:24:43;;;;;;;0.80;0.80;;;25.90;29.60;;;;;;5458065;26;20003;-83
2024/04/20 09:27:12;;;;;;;0.20;0.20;;;26.90;28.20;;;;;;5488273;26;20025;-89
2024/04/20 09:29:40;;;;;;;0.00;0.00;;;27.10;28.40;;;;;;5490474;26;20322;-78
2024/04/20 09:32:11;;;;;;;0.00;0.00;;;26.30;28.60;;;;;;5478208;26;20002;-81
2024/04/20 09:34:37;;;;;;;0.00;0.00;;;24.50;30.60;;;;;;5471167;26;20333;-75
2024/04/20 09:37:03;;;;;;;0.00;0.00;;;23.30;32.40;;;;;;5486258;26;20008;-85
2024/04/20 09:39:29;;;;;;;0.00;0.00;;;22.50;33.50;;;;;;5486254;26;20329;-81
2024/04/20 09:41:57;;;;;;;0.00;0.00;;;21.70;34.80;;;;;;5485551;26;20014;-83
2024/04/20 09:44:26;;;;;;;0.00;0.00;;;21.10;35.60;;;;;;5480619;26;19999;-83
2024/04/20 09:46:52;;;;;;;0.00;0.00;;;20.60;36.00;;;;;;5465086;26;20018;-84
2024/04/20 09:49:29;;;;;;;0.00;0.00;;;20.30;36.90;;;;;;5477751;26;20018;-82
2024/04/20 09:52:02;;;;;;;0.10;0.10;;;19.90;37.70;;;;;;5490652;26;20002;-85
2024/04/20 09:54:30;;;;;;;;;;;19.70;37.90;;;;;;5480229;26;20003;-81
2024/04/20 09:56:58;;;;;;;0.10;0.10;;;19.70;38.80;;;;;;5474171;26;19924;-81
2024/04/20 09:59:24;;;;;;;0.00;0.00;;;19.50;38.10;;;;;;5476040;26;20002;-92
2024/04/20 10:01:51;;;;;;;0.00;0.00;;;19.40;38.80;;;;;;5478737;26;20070;-84
2024/04/20 10:04:19;;;;;;;0.00;0.00;;;19.00;39.50;;;;;;5474165;26;20401;-83
2024/04/20 10:06:46;;;;;;;0.05;0.05;;;18.70;40.10;;;;;;5468008;26;20002;-89
2024/04/20 10:09:13;;;;;;;0.00;0.00;;;18.70;40.00;;;;;;5472239;26;20024;-82
2024/04/20 10:11:41;;;;;;;0.05;0.05;;;18.60;40.50;;;;;;5459896;26;20002;-81
2024/04/20 10:14:07;;;;;;;0.08;0.08;;;18.50;40.40;;;;;;5483635;26;19994;-81
2024/04/20 10:16:34;;;;;;;0.70;0.70;;;18.30;41.70;;;;;;5482225;26;20010;-79
2024/04/20 10:18:59;;;;;;;0.70;0.70;;;19.00;42.10;;;;;;5502414;26;20375;-80
2024/04/20 10:21:25;;;;;;;0.60;0.60;;;20.00;41.20;;;;;;5506881;26;20006;-84
2024/04/20 10:23:51;;;;;;;0.10;0.10;;;20.90;36.80;;;;;;5491301;26;20038;-81
2024/04/20 10:26:46;;;;;;;0.00;0.00;;;20.80;35.20;;;;;;5485081;26;20115;-81
2024/04/20 10:29:22;;;;;;;0.00;0.00;;;20.20;35.80;;;;;;5473376;26;20038;-84
2024/04/20 10:32:05;;;;;;;0.10;0.10;;;19.30;36.00;;;;;;5491694;26;20002;-81
2024/04/20 10:34:30;;;;;;;0.10;0.10;;;18.80;37.80;;;;;;5491817;26;20003;-82
2024/04/20 10:37:01;;;;;;;0.10;0.10;;;18.70;38.00;;;;;;5489433;26;20013;-80
2024/04/20 10:39:28;;;;;;;0.10;0.10;;;18.80;39.40;;;;;;5493350;26;20002;-82
2024/04/20 10:42:10;;;;;;;0.10;0.10;;;18.70;39.60;;;;;;5503064;26;19997;-82
2024/04/20 10:44:39;;;;;;;0.10;0.10;;;19.00;39.50;;;;;;5492839;26;20002;-87
2024/04/20 10:47:16;;;;;;;0.10;0.10;;;19.20;38.90;;;;;;5511224;26;20005;-85
2024/04/20 10:50:16;;;;;;;0.10;0.10;;;19.50;37.70;;;;;;5530150;25;19997;-82
2024/04/20 10:52:42;;;;;;;0.10;0.10;;;19.30;37.80;;;;;;5474348;26;19998;-94
2024/04/20 10:55:14;;;;;;;0.10;0.10;;;18.90;36.80;;;;;;5476036;26;20012;-75
2024/04/20 10:57:40;;;;;;;0.10;0.10;;;18.70;37.30;;;;;;5483489;26;20018;-80
2024/04/20 11:00:10;;;;;;;0.10;0.10;;;18.60;37.60;;;;;;5453424;26;19999;-79
2024/04/20 11:02:38;;;;;;;0.00;0.00;;;18.40;38.60;;;;;;5472020;26;20070;-86
2024/04/20 11:05:08;;;;;;;0.10;0.10;;;18.30;37.90;;;;;;5492923;26;19994;-86
2024/04/20 11:07:34;;;;;;;0.10;0.10;;;18.20;37.80;;;;;;5488434;26;19998;-77
2024/04/20 11:09:59;;;;;;;0.10;0.10;;;18.10;38.00;;;;;;5478444;26;20001;-80
2024/04/20 11:12:25;;;;;;;0.10;0.10;;;18.20;39.10;;;;;;5461929;26;20009;-80
2024/04/20 11:15:03;;;;;;;0.10;0.10;;;18.10;37.40;;;;;;5451285;26;20009;-79
2024/04/20 11:17:29;;;;;;;0.10;0.10;;;18.20;36.90;;;;;;5462724;26;19994;-80
2024/04/20 11:19:56;;;;;;;0.10;0.10;;;18.40;37.90;;;;;;5517789;26;20042;-80
2024/04/20 11:22:22;;;;;;;0.10;0.10;;;18.60;37.30;;;;;;5529940;25;19993;-80
2024/04/20 11:24:48;;;;;;;0.10;0.10;;;18.50;36.50;;;;;;5502110;26;20017;-79
2024/04/20 11:27:14;;;;;;;0.10;0.10;;;18.40;36.30;;;;;;5492779;26;20359;-79
2024/04/20 11:29:40;;;;;;;0.10;0.10;;;18.50;36.70;;;;;;5490740;26;20002;-78
2024/04/20 11:32:06;;;;;;;0.10;0.10;;;18.50;36.90;;;;;;5490291;25;20017;-79
2024/04/20 11:34:32;;;;;;;0.10;0.10;;;18.30;35.50;;;;;;5475579;26;20004;-79
2024/04/20 11:37:00;;;;;;;0.10;0.10;;;18.40;36.10;;;;;;5456388;26;20071;-79
2024/04/20 11:39:28;;;;;;;0.10;0.10;;;18.40;36.40;;;;;;5464959;26;19998;-79
2024/04/20 11:42:05;;;;;;;0.10;0.10;;;18.30;36.20;;;;;;5486969;26;20103;-79
2024/04/20 11:44:38;;;;;;;0.10;0.10;;;18.00;35.30;;;;;;5486982;26;20002;-79
2024/04/20 11:47:12;;;;;;;0.10;0.10;;;17.90;36.40;;;;;;5480750;26;20006;-79
2024/04/20 11:49:38;;;;;;;0.10;0.10;;;18.00;35.10;;;;;;5490362;26;20019;-79
2024/04/20 11:54:48;;;;;;;0.10;0.10;;;18.00;34.00;;;;;;5459454;26;20005;-79
2024/04/20 11:57:14;;;;;;;0.10;0.10;;;18.10;34.30;;;;;;5491131;26;19998;-79
2024/04/20 11:59:40;;;;;;;0.10;0.10;;;17.80;33.40;;;;;;5490532;26;20090;-79
2024/04/20 12:02:05;;;;;;;0.10;0.10;;;17.70;34.30;;;;;;5486732;26;20002;-79
2024/04/20 12:04:31;;;;;;;0.10;0.10;;;17.70;33.80;;;;;;5492403;26;20010;-79
2024/04/20 12:06:57;;;;;;;0.10;0.10;;;17.90;33.60;;;;;;5490457;26;20004;-79
2024/04/20 12:09:25;;;;;;;0.10;0.10;;;17.90;34.50;;;;;;5493259;26;20017;-79
2024/04/20 12:11:51;;;;;;;0.10;0.10;;;18.00;34.40;;;;;;5490475;26;20955;-79
2024/04/20 12:14:17;;;;;;;0.10;0.10;;;18.00;33.20;;;;;;5492259;26;20013;-79
2024/04/20 12:16:42;;;;;;;0.10;0.10;;;18.10;34.00;;;;;;5490575;26;20013;-79
2024/04/20 12:19:08;;;;;;;0.10;0.10;;;18.00;34.90;;;;;;5492527;26;19994;-79
2024/04/20 12:21:34;;;;;;;0.10;0.10;;;18.00;34.60;;;;;;5496400;26;20009;-79
2024/04/20 12:23:59;;;;;;;0.10;0.10;;;17.90;33.30;;;;;;5494656;26;19998;-80
2024/04/20 12:26:25;;;;;;;0.10;0.10;;;17.80;33.20;;;;;;5494234;26;20452;-79
2024/04/20 12:28:51;;;;;;;0.10;0.10;;;17.80;33.40;;;;;;5493932;26;20427;-79
2024/04/20 12:31:17;;;;;;;0.10;0.10;;;17.90;34.20;;;;;;5493561;26;20012;-79
2024/04/20 12:33:42;;;;;;;0.10;0.10;;;17.80;32.70;;;;;;5493663;26;20067;-79
2024/04/20 12:36:15;;;;;;;0.10;0.10;;;17.80;33.80;;;;;;5492995;26;20009;-79
2024/04/20 12:38:41;;;;;;;;;;;17.90;34.40;;;;;;5459789;26;19995;-79
2024/04/20 12:41:06;;;;;;;0.10;0.10;;;18.00;34.30;;;;;;5511875;26;19931;-79
2024/04/20 12:43:32;;;;;;;0.10;0.10;;;18.10;34.00;;;;;;5493562;26;19994;-79
2024/04/20 12:45:58;;;;;;;0.10;0.10;;;18.10;34.40;;;;;;5494864;26;20006;-79
2024/04/20 12:48:24;;;;;;;0.10;0.10;;;18.00;34.80;;;;;;5524500;26;19998;-79
2024/04/20 12:50:53;;;;;;;0.10;0.10;;;18.00;34.60;;;;;;5494748;26;20437;-79